sensor_id;sensor_type;location;lat;lon;timestamp;P1;durP1;ratioP1;P2;durP2;ratioP2
24635;SDS011;12772;49.794;10.024;2022-12-22T00:00:02;2.97;;;2.78;;
24635;SDS011;12772;49.794;10.024;2022-12-22T00:04:23;3.30;;;3.10;;
24635;SDS011;12772;49.794;10.024;2022-12-22T00:08:42;4.30;;;2.85;;
24635;SDS011;12772;49.794;10.024;2022-12-22T00:13:02;3.35;;;2.70;;
24635;SDS011;12772;49.794;10.024;2022-12-22T00:17:26;3.13;;;2.92;;
24635;SDS011;12772;49.794;10.024;2022-12-22T00:21:46;2.50;;;2.30;;
24635;SDS011;12772;49.794;10.024;2022-12-22T00:26:06;2.80;;;2.60;;
24635;SDS011;12772;49.794;10.024;2022-12-22T00:30:26;3.30;;;2.63;;
24635;SDS011;12772;49.794;10.024;2022-12-22T00:34:46;3.53;;;2.42;;
24635;SDS011;12772;49.794;10.024;2022-12-22T00:39:11;2.85;;;2.33;;
24635;SDS011;12772;49.794;10.024;2022-12-22T00:43:31;3.03;;;2.28;;
24635;SDS011;12772;49.794;10.024;2022-12-22T00:47:50;5.07;;;2.70;;
24635;SDS011;12772;49.794;10.024;2022-12-22T00:52:10;2.30;;;2.10;;
24635;SDS011;12772;49.794;10.024;2022-12-22T00:56:30;1.90;;;1.80;;
24635;SDS011;12772;49.794;10.024;2022-12-22T01:00:50;2.40;;;2.20;;
24635;SDS011;12772;49.794;10.024;2022-12-22T01:05:09;1.90;;;1.80;;
24635;SDS011;12772;49.794;10.024;2022-12-22T01:09:29;2.85;;;2.10;;
24635;SDS011;12772;49.794;10.024;2022-12-22T01:13:49;1.80;;;1.70;;
24635;SDS011;12772;49.794;10.024;2022-12-22T01:18:09;1.90;;;1.80;;
24635;SDS011;12772;49.794;10.024;2022-12-22T01:22:28;1.98;;;1.88;;
24635;SDS011;12772;49.794;10.024;2022-12-22T01:26:48;1.92;;;1.83;;
24635;SDS011;12772;49.794;10.024;2022-12-22T01:31:13;3.40;;;1.90;;
24635;SDS011;12772;49.794;10.024;2022-12-22T01:35:47;1.70;;;1.60;;
24635;SDS011;12772;49.794;10.024;2022-12-22T01:40:17;1.77;;;1.67;;
24635;SDS011;12772;49.794;10.024;2022-12-22T01:44:38;1.85;;;1.67;;
24635;SDS011;12772;49.794;10.024;2022-12-22T01:48:58;3.47;;;1.60;;
24635;SDS011;12772;49.794;10.024;2022-12-22T01:53:18;3.15;;;1.98;;
24635;SDS011;12772;49.794;10.024;2022-12-22T01:57:41;2.00;;;1.75;;
24635;SDS011;12772;49.794;10.024;2022-12-22T02:02:03;1.50;;;1.40;;
24635;SDS011;12772;49.794;10.024;2022-12-22T02:06:32;2.65;;;2.10;;
24635;SDS011;12772;49.794;10.024;2022-12-22T02:15:17;2.08;;;1.90;;
24635;SDS011;12772;49.794;10.024;2022-12-22T02:19:50;1.63;;;1.52;;
24635;SDS011;12772;49.794;10.024;2022-12-22T02:24:34;1.92;;;1.70;;
24635;SDS011;12772;49.794;10.024;2022-12-22T02:28:58;1.70;;;1.60;;
24635;SDS011;12772;49.794;10.024;2022-12-22T02:33:19;1.98;;;1.83;;
24635;SDS011;12772;49.794;10.024;2022-12-22T02:42:15;2.80;;;1.90;;
24635;SDS011;12772;49.794;10.024;2022-12-22T02:47:18;2.22;;;1.60;;
24635;SDS011;12772;49.794;10.024;2022-12-22T02:52:00;1.58;;;1.48;;
24635;SDS011;12772;49.794;10.024;2022-12-22T02:56:28;2.63;;;1.42;;
24635;SDS011;12772;49.794;10.024;2022-12-22T03:00:48;2.38;;;1.70;;
24635;SDS011;12772;49.794;10.024;2022-12-22T03:05:08;1.48;;;1.38;;
24635;SDS011;12772;49.794;10.024;2022-12-22T03:09:28;1.75;;;1.50;;
24635;SDS011;12772;49.794;10.024;2022-12-22T03:13:47;1.80;;;1.48;;
24635;SDS011;12772;49.794;10.024;2022-12-22T03:18:07;1.30;;;1.30;;
24635;SDS011;12772;49.794;10.024;2022-12-22T03:22:28;2.08;;;1.30;;
24635;SDS011;12772;49.794;10.024;2022-12-22T03:26:48;1.60;;;1.42;;
24635;SDS011;12772;49.794;10.024;2022-12-22T03:31:00;2.50;;;1.77;;
24635;SDS011;12772;49.794;10.024;2022-12-22T03:35:05;1.33;;;1.23;;
24635;SDS011;12772;49.794;10.024;2022-12-22T03:39:07;1.25;;;1.20;;
24635;SDS011;12772;49.794;10.024;2022-12-22T03:43:11;3.70;;;1.40;;
24635;SDS011;12772;49.794;10.024;2022-12-22T03:47:31;1.55;;;1.30;;
24635;SDS011;12772;49.794;10.024;2022-12-22T03:51:34;1.75;;;1.48;;
24635;SDS011;12772;49.794;10.024;2022-12-22T03:55:46;1.38;;;1.27;;
24635;SDS011;12772;49.794;10.024;2022-12-22T03:59:48;1.00;;;1.00;;
24635;SDS011;12772;49.794;10.024;2022-12-22T04:03:50;2.15;;;1.23;;
24635;SDS011;12772;49.794;10.024;2022-12-22T04:07:53;1.30;;;1.20;;
24635;SDS011;12772;49.794;10.024;2022-12-22T04:11:55;1.48;;;1.20;;
24635;SDS011;12772;49.794;10.024;2022-12-22T04:16:14;1.30;;;1.20;;
24635;SDS011;12772;49.794;10.024;2022-12-22T04:20:16;1.30;;;1.20;;
24635;SDS011;12772;49.794;10.024;2022-12-22T04:24:20;2.70;;;1.20;;
24635;SDS011;12772;49.794;10.024;2022-12-22T04:28:22;2.05;;;1.10;;
24635;SDS011;12772;49.794;10.024;2022-12-22T04:32:24;2.25;;;1.27;;
24635;SDS011;12772;49.794;10.024;2022-12-22T04:36:26;1.95;;;1.10;;
24635;SDS011;12772;49.794;10.024;2022-12-22T04:40:28;1.55;;;1.17;;
24635;SDS011;12772;49.794;10.024;2022-12-22T04:44:30;1.02;;;0.95;;
24635;SDS011;12772;49.794;10.024;2022-12-22T04:48:32;1.00;;;1.00;;
24635;SDS011;12772;49.794;10.024;2022-12-22T04:52:35;5.07;;;1.25;;
24635;SDS011;12772;49.794;10.024;2022-12-22T04:56:37;1.30;;;1.08;;
24635;SDS011;12772;49.794;10.024;2022-12-22T05:00:39;4.13;;;1.30;;
24635;SDS011;12772;49.794;10.024;2022-12-22T05:04:41;1.15;;;1.00;;
24635;SDS011;12772;49.794;10.024;2022-12-22T05:08:43;1.60;;;1.23;;
24635;SDS011;12772;49.794;10.024;2022-12-22T05:12:45;1.13;;;1.02;;
24635;SDS011;12772;49.794;10.024;2022-12-22T05:16:56;1.40;;;1.05;;
24635;SDS011;12772;49.794;10.024;2022-12-22T05:21:06;1.63;;;1.08;;
24635;SDS011;12772;49.794;10.024;2022-12-22T05:25:13;2.35;;;1.20;;
24635;SDS011;12772;49.794;10.024;2022-12-22T05:29:17;1.05;;;0.80;;
24635;SDS011;12772;49.794;10.024;2022-12-22T05:33:19;4.30;;;1.05;;
24635;SDS011;12772;49.794;10.024;2022-12-22T05:37:21;0.75;;;0.75;;
24635;SDS011;12772;49.794;10.024;2022-12-22T05:41:23;0.90;;;0.90;;
24635;SDS011;12772;49.794;10.024;2022-12-22T05:45:25;1.10;;;1.00;;
24635;SDS011;12772;49.794;10.024;2022-12-22T05:49:28;1.70;;;1.00;;
24635;SDS011;12772;49.794;10.024;2022-12-22T05:53:30;1.63;;;1.10;;
24635;SDS011;12772;49.794;10.024;2022-12-22T05:57:32;1.00;;;0.98;;
24635;SDS011;12772;49.794;10.024;2022-12-22T06:01:34;1.05;;;1.05;;
24635;SDS011;12772;49.794;10.024;2022-12-22T06:05:36;2.15;;;0.95;;
24635;SDS011;12772;49.794;10.024;2022-12-22T06:09:39;1.58;;;1.25;;
24635;SDS011;12772;49.794;10.024;2022-12-22T06:13:41;1.10;;;1.10;;
24635;SDS011;12772;49.794;10.024;2022-12-22T06:17:43;1.65;;;1.20;;
24635;SDS011;12772;49.794;10.024;2022-12-22T06:21:45;1.63;;;1.13;;
24635;SDS011;12772;49.794;10.024;2022-12-22T06:25:54;1.42;;;1.15;;
24635;SDS011;12772;49.794;10.024;2022-12-22T06:29:58;1.17;;;1.13;;
24635;SDS011;12772;49.794;10.024;2022-12-22T06:34:00;3.70;;;2.17;;
24635;SDS011;12772;49.794;10.024;2022-12-22T06:38:02;1.48;;;1.23;;
24635;SDS011;12772;49.794;10.024;2022-12-22T06:42:05;1.63;;;1.20;;
24635;SDS011;12772;49.794;10.024;2022-12-22T06:46:24;1.85;;;1.20;;
24635;SDS011;12772;49.794;10.024;2022-12-22T06:50:26;2.20;;;1.48;;
24635;SDS011;12772;49.794;10.024;2022-12-22T06:54:28;0.93;;;0.90;;
24635;SDS011;12772;49.794;10.024;2022-12-22T06:58:30;4.45;;;1.20;;
24635;SDS011;12772;49.794;10.024;2022-12-22T07:02:33;1.67;;;1.20;;
24635;SDS011;12772;49.794;10.024;2022-12-22T07:06:35;3.00;;;1.05;;
24635;SDS011;12772;49.794;10.024;2022-12-22T07:10:37;2.15;;;1.15;;
24635;SDS011;12772;49.794;10.024;2022-12-22T07:14:57;4.00;;;1.60;;
24635;SDS011;12772;49.794;10.024;2022-12-22T07:18:59;1.25;;;1.17;;
24635;SDS011;12772;49.794;10.024;2022-12-22T07:23:01;1.40;;;1.30;;
24635;SDS011;12772;49.794;10.024;2022-12-22T07:27:03;1.63;;;1.10;;
24635;SDS011;12772;49.794;10.024;2022-12-22T07:31:06;2.42;;;1.30;;
24635;SDS011;12772;49.794;10.024;2022-12-22T07:35:10;3.58;;;1.50;;
24635;SDS011;12772;49.794;10.024;2022-12-22T07:39:12;1.70;;;1.20;;
24635;SDS011;12772;49.794;10.024;2022-12-22T07:43:14;1.63;;;1.52;;
24635;SDS011;12772;49.794;10.024;2022-12-22T07:47:16;2.95;;;1.73;;
24635;SDS011;12772;49.794;10.024;2022-12-22T07:51:18;1.77;;;1.60;;
24635;SDS011;12772;49.794;10.024;2022-12-22T07:55:21;2.05;;;1.27;;
24635;SDS011;12772;49.794;10.024;2022-12-22T07:59:24;2.88;;;1.80;;
24635;SDS011;12772;49.794;10.024;2022-12-22T08:03:26;2.70;;;1.40;;
24635;SDS011;12772;49.794;10.024;2022-12-22T08:07:28;3.28;;;1.70;;
24635;SDS011;12772;49.794;10.024;2022-12-22T08:11:32;4.63;;;1.70;;
24635;SDS011;12772;49.794;10.024;2022-12-22T08:15:34;2.15;;;1.50;;
24635;SDS011;12772;49.794;10.024;2022-12-22T08:19:37;1.90;;;1.05;;
24635;SDS011;12772;49.794;10.024;2022-12-22T08:23:39;4.53;;;1.83;;
24635;SDS011;12772;49.794;10.024;2022-12-22T08:27:43;2.60;;;1.63;;
24635;SDS011;12772;49.794;10.024;2022-12-22T08:31:49;2.95;;;1.45;;
24635;SDS011;12772;49.794;10.024;2022-12-22T08:35:52;2.40;;;1.60;;
24635;SDS011;12772;49.794;10.024;2022-12-22T08:39:57;5.22;;;1.55;;
24635;SDS011;12772;49.794;10.024;2022-12-22T08:44:03;3.13;;;1.90;;
24635;SDS011;12772;49.794;10.024;2022-12-22T08:48:05;6.68;;;2.05;;
24635;SDS011;12772;49.794;10.024;2022-12-22T08:52:07;6.80;;;3.08;;
24635;SDS011;12772;49.794;10.024;2022-12-22T08:56:11;4.15;;;2.80;;
24635;SDS011;12772;49.794;10.024;2022-12-22T09:00:13;9.00;;;3.20;;
24635;SDS011;12772;49.794;10.024;2022-12-22T09:04:17;7.75;;;3.08;;
24635;SDS011;12772;49.794;10.024;2022-12-22T09:08:20;5.00;;;2.10;;
24635;SDS011;12772;49.794;10.024;2022-12-22T09:12:22;5.10;;;2.33;;
24635;SDS011;12772;49.794;10.024;2022-12-22T09:16:25;4.75;;;2.25;;
24635;SDS011;12772;49.794;10.024;2022-12-22T09:20:28;8.15;;;2.45;;
24635;SDS011;12772;49.794;10.024;2022-12-22T09:24:31;5.95;;;2.03;;
24635;SDS011;12772;49.794;10.024;2022-12-22T09:28:33;6.72;;;2.05;;
24635;SDS011;12772;49.794;10.024;2022-12-22T09:32:35;6.00;;;2.85;;
24635;SDS011;12772;49.794;10.024;2022-12-22T09:36:38;6.47;;;1.83;;
24635;SDS011;12772;49.794;10.024;2022-12-22T09:40:41;6.15;;;2.05;;
24635;SDS011;12772;49.794;10.024;2022-12-22T09:44:44;8.10;;;2.03;;
24635;SDS011;12772;49.794;10.024;2022-12-22T09:48:50;7.30;;;1.90;;
24635;SDS011;12772;49.794;10.024;2022-12-22T09:53:35;5.13;;;2.10;;
24635;SDS011;12772;49.794;10.024;2022-12-22T09:57:20;5.90;;;2.58;;
24635;SDS011;12772;49.794;10.024;2022-12-22T10:01:31;8.02;;;2.88;;
24635;SDS011;12772;49.794;10.024;2022-12-22T10:14:35;5.60;;;2.42;;
24635;SDS011;12772;49.794;10.024;2022-12-22T10:18:39;6.00;;;2.10;;
24635;SDS011;12772;49.794;10.024;2022-12-22T10:23:18;3.58;;;2.03;;
24635;SDS011;12772;49.794;10.024;2022-12-22T10:27:28;9.65;;;2.72;;
24635;SDS011;12772;49.794;10.024;2022-12-22T10:31:33;7.78;;;2.47;;
24635;SDS011;12772;49.794;10.024;2022-12-22T10:35:41;9.18;;;2.80;;
24635;SDS011;12772;49.794;10.024;2022-12-22T10:39:43;4.05;;;2.25;;
24635;SDS011;12772;49.794;10.024;2022-12-22T10:43:48;6.97;;;2.33;;
24635;SDS011;12772;49.794;10.024;2022-12-22T10:47:58;4.88;;;1.60;;
24635;SDS011;12772;49.794;10.024;2022-12-22T10:56:29;3.75;;;2.30;;
24635;SDS011;12772;49.794;10.024;2022-12-22T11:00:32;3.53;;;1.52;;
24635;SDS011;12772;49.794;10.024;2022-12-22T11:04:34;6.47;;;1.92;;
24635;SDS011;12772;49.794;10.024;2022-12-22T11:08:37;5.50;;;1.77;;
24635;SDS011;12772;49.794;10.024;2022-12-22T11:17:07;4.32;;;1.65;;
24635;SDS011;12772;49.794;10.024;2022-12-22T11:21:18;6.95;;;2.65;;
24635;SDS011;12772;49.794;10.024;2022-12-22T11:26:00;2.67;;;1.60;;
24635;SDS011;12772;49.794;10.024;2022-12-22T11:30:26;2.88;;;1.45;;
24635;SDS011;12772;49.794;10.024;2022-12-22T11:34:55;2.22;;;1.20;;
24635;SDS011;12772;49.794;10.024;2022-12-22T11:39:19;3.72;;;1.20;;
24635;SDS011;12772;49.794;10.024;2022-12-22T11:43:43;2.47;;;1.27;;
24635;SDS011;12772;49.794;10.024;2022-12-22T11:48:06;2.28;;;1.35;;
24635;SDS011;12772;49.794;10.024;2022-12-22T11:52:37;1.75;;;1.30;;
24635;SDS011;12772;49.794;10.024;2022-12-22T12:10:28;1.05;;;0.95;;
24635;SDS011;12772;49.794;10.024;2022-12-22T12:14:37;1.55;;;0.90;;
24635;SDS011;12772;49.794;10.024;2022-12-22T12:23:51;3.03;;;0.93;;
24635;SDS011;12772;49.794;10.024;2022-12-22T12:28:13;1.70;;;1.10;;
24635;SDS011;12772;49.794;10.024;2022-12-22T12:32:24;3.90;;;1.20;;
24635;SDS011;12772;49.794;10.024;2022-12-22T12:36:38;1.00;;;0.90;;
24635;SDS011;12772;49.794;10.024;2022-12-22T12:40:51;2.42;;;0.75;;
24635;SDS011;12772;49.794;10.024;2022-12-22T12:44:59;0.93;;;0.88;;
24635;SDS011;12772;49.794;10.024;2022-12-22T12:49:02;1.83;;;0.77;;
24635;SDS011;12772;49.794;10.024;2022-12-22T12:53:04;1.70;;;0.98;;
24635;SDS011;12772;49.794;10.024;2022-12-22T13:05:33;1.17;;;1.00;;
24635;SDS011;12772;49.794;10.024;2022-12-22T13:10:07;2.15;;;1.13;;
24635;SDS011;12772;49.794;10.024;2022-12-22T13:18:56;2.17;;;1.02;;
24635;SDS011;12772;49.794;10.024;2022-12-22T13:23:00;1.02;;;0.80;;
24635;SDS011;12772;49.794;10.024;2022-12-22T13:27:04;0.82;;;0.82;;
24635;SDS011;12772;49.794;10.024;2022-12-22T13:31:21;1.15;;;0.80;;
24635;SDS011;12772;49.794;10.024;2022-12-22T13:35:36;1.63;;;0.90;;
24635;SDS011;12772;49.794;10.024;2022-12-22T13:39:40;0.70;;;0.70;;
24635;SDS011;12772;49.794;10.024;2022-12-22T13:43:43;2.20;;;1.00;;
24635;SDS011;12772;49.794;10.024;2022-12-22T13:47:48;1.90;;;1.02;;
24635;SDS011;12772;49.794;10.024;2022-12-22T13:51:51;1.55;;;1.02;;
24635;SDS011;12772;49.794;10.024;2022-12-22T13:55:53;0.98;;;0.70;;
24635;SDS011;12772;49.794;10.024;2022-12-22T13:59:55;1.48;;;1.08;;
24635;SDS011;12772;49.794;10.024;2022-12-22T14:03:58;0.90;;;0.90;;
24635;SDS011;12772;49.794;10.024;2022-12-22T14:08:08;2.13;;;0.98;;
24635;SDS011;12772;49.794;10.024;2022-12-22T14:12:38;1.15;;;0.80;;
24635;SDS011;12772;49.794;10.024;2022-12-22T14:16:41;1.10;;;1.00;;
24635;SDS011;12772;49.794;10.024;2022-12-22T14:20:45;1.10;;;1.00;;
24635;SDS011;12772;49.794;10.024;2022-12-22T14:24:50;0.75;;;0.75;;
24635;SDS011;12772;49.794;10.024;2022-12-22T14:28:54;0.98;;;0.90;;
24635;SDS011;12772;49.794;10.024;2022-12-22T14:33:01;1.30;;;1.20;;
24635;SDS011;12772;49.794;10.024;2022-12-22T14:37:16;2.10;;;1.10;;
24635;SDS011;12772;49.794;10.024;2022-12-22T14:41:29;1.08;;;0.93;;
24635;SDS011;12772;49.794;10.024;2022-12-22T14:45:44;1.10;;;1.08;;
24635;SDS011;12772;49.794;10.024;2022-12-22T14:49:58;1.02;;;1.02;;
24635;SDS011;12772;49.794;10.024;2022-12-22T14:54:04;1.25;;;1.13;;
24635;SDS011;12772;49.794;10.024;2022-12-22T15:02:24;1.25;;;1.25;;
24635;SDS011;12772;49.794;10.024;2022-12-22T15:06:34;1.08;;;1.08;;
24635;SDS011;12772;49.794;10.024;2022-12-22T15:10:40;1.63;;;1.27;;
24635;SDS011;12772;49.794;10.024;2022-12-22T15:14:43;1.42;;;1.33;;
24635;SDS011;12772;49.794;10.024;2022-12-22T15:18:51;2.90;;;2.60;;
24635;SDS011;12772;49.794;10.024;2022-12-22T15:22:53;4.40;;;3.33;;
24635;SDS011;12772;49.794;10.024;2022-12-22T15:26:55;3.88;;;3.30;;
24635;SDS011;12772;49.794;10.024;2022-12-22T15:30:58;3.92;;;2.15;;
24635;SDS011;12772;49.794;10.024;2022-12-22T15:35:01;2.10;;;1.90;;
24635;SDS011;12772;49.794;10.024;2022-12-22T15:39:03;1.98;;;1.80;;
24635;SDS011;12772;49.794;10.024;2022-12-22T15:43:09;1.92;;;1.40;;
24635;SDS011;12772;49.794;10.024;2022-12-22T15:47:12;1.45;;;1.35;;
24635;SDS011;12772;49.794;10.024;2022-12-22T15:51:18;0.98;;;0.98;;
24635;SDS011;12772;49.794;10.024;2022-12-22T15:55:23;1.70;;;1.60;;
24635;SDS011;12772;49.794;10.024;2022-12-22T15:59:27;1.67;;;1.58;;
24635;SDS011;12772;49.794;10.024;2022-12-22T16:03:29;2.22;;;2.13;;
24635;SDS011;12772;49.794;10.024;2022-12-22T16:07:31;2.67;;;2.47;;
24635;SDS011;12772;49.794;10.024;2022-12-22T16:11:35;3.63;;;2.03;;
24635;SDS011;12772;49.794;10.024;2022-12-22T16:15:38;2.10;;;2.00;;
24635;SDS011;12772;49.794;10.024;2022-12-22T16:19:40;2.63;;;2.25;;
24635;SDS011;12772;49.794;10.024;2022-12-22T16:23:45;1.95;;;1.85;;
24635;SDS011;12772;49.794;10.024;2022-12-22T16:27:48;2.10;;;1.95;;
24635;SDS011;12772;49.794;10.024;2022-12-22T16:31:51;1.80;;;1.70;;
24635;SDS011;12772;49.794;10.024;2022-12-22T16:35:54;2.13;;;1.95;;
24635;SDS011;12772;49.794;10.024;2022-12-22T16:39:56;1.52;;;1.42;;
24635;SDS011;12772;49.794;10.024;2022-12-22T16:43:58;1.77;;;1.30;;
24635;SDS011;12772;49.794;10.024;2022-12-22T16:48:03;1.60;;;1.50;;
24635;SDS011;12772;49.794;10.024;2022-12-22T16:52:14;2.40;;;1.83;;
24635;SDS011;12772;49.794;10.024;2022-12-22T16:56:23;2.10;;;1.55;;
24635;SDS011;12772;49.794;10.024;2022-12-22T17:00:29;1.65;;;1.55;;
24635;SDS011;12772;49.794;10.024;2022-12-22T17:04:35;4.75;;;4.18;;
24635;SDS011;12772;49.794;10.024;2022-12-22T17:08:38;6.75;;;6.15;;
24635;SDS011;12772;49.794;10.024;2022-12-22T17:12:42;4.82;;;4.43;;
24635;SDS011;12772;49.794;10.024;2022-12-22T17:16:44;4.07;;;3.70;;
24635;SDS011;12772;49.794;10.024;2022-12-22T17:20:47;3.83;;;3.50;;
24635;SDS011;12772;49.794;10.024;2022-12-22T17:24:51;3.53;;;3.22;;
24635;SDS011;12772;49.794;10.024;2022-12-22T17:28:56;2.78;;;2.40;;
24635;SDS011;12772;49.794;10.024;2022-12-22T17:32:59;2.63;;;2.42;;
24635;SDS011;12772;49.794;10.024;2022-12-22T17:37:01;2.05;;;1.90;;
24635;SDS011;12772;49.794;10.024;2022-12-22T17:41:04;4.10;;;1.92;;
24635;SDS011;12772;49.794;10.024;2022-12-22T17:45:11;2.20;;;1.88;;
24635;SDS011;12772;49.794;10.024;2022-12-22T17:49:14;2.63;;;2.30;;
24635;SDS011;12772;49.794;10.024;2022-12-22T17:53:19;2.78;;;2.20;;
24635;SDS011;12772;49.794;10.024;2022-12-22T17:57:23;3.03;;;2.10;;
24635;SDS011;12772;49.794;10.024;2022-12-22T18:01:28;2.20;;;2.03;;
24635;SDS011;12772;49.794;10.024;2022-12-22T18:05:36;2.90;;;2.10;;
24635;SDS011;12772;49.794;10.024;2022-12-22T18:09:40;3.17;;;2.88;;
24635;SDS011;12772;49.794;10.024;2022-12-22T18:13:43;5.68;;;3.75;;
24635;SDS011;12772;49.794;10.024;2022-12-22T18:17:46;9.82;;;8.13;;
24635;SDS011;12772;49.794;10.024;2022-12-22T18:21:48;5.78;;;4.22;;
24635;SDS011;12772;49.794;10.024;2022-12-22T18:25:50;4.05;;;2.80;;
24635;SDS011;12772;49.794;10.024;2022-12-22T18:29:52;3.83;;;2.60;;
24635;SDS011;12772;49.794;10.024;2022-12-22T18:33:54;6.80;;;3.78;;
24635;SDS011;12772;49.794;10.024;2022-12-22T18:37:56;6.22;;;3.38;;
24635;SDS011;12772;49.794;10.024;2022-12-22T18:41:59;9.07;;;4.70;;
24635;SDS011;12772;49.794;10.024;2022-12-22T18:46:01;11.15;;;3.72;;
24635;SDS011;12772;49.794;10.024;2022-12-22T18:50:03;13.57;;;4.63;;
24635;SDS011;12772;49.794;10.024;2022-12-22T18:54:18;9.07;;;4.35;;
24635;SDS011;12772;49.794;10.024;2022-12-22T18:58:24;14.18;;;3.88;;
24635;SDS011;12772;49.794;10.024;2022-12-22T19:02:27;10.40;;;4.03;;
24635;SDS011;12772;49.794;10.024;2022-12-22T19:06:30;14.50;;;4.88;;
24635;SDS011;12772;49.794;10.024;2022-12-22T19:10:34;15.10;;;5.30;;
24635;SDS011;12772;49.794;10.024;2022-12-22T19:14:43;11.02;;;4.72;;
24635;SDS011;12772;49.794;10.024;2022-12-22T19:18:47;12.98;;;4.57;;
24635;SDS011;12772;49.794;10.024;2022-12-22T19:22:49;16.77;;;5.07;;
24635;SDS011;12772;49.794;10.024;2022-12-22T19:26:52;18.48;;;5.97;;
24635;SDS011;12772;49.794;10.024;2022-12-22T19:30:54;17.52;;;5.28;;
24635;SDS011;12772;49.794;10.024;2022-12-22T19:34:57;17.83;;;5.32;;
24635;SDS011;12772;49.794;10.024;2022-12-22T19:38:59;13.32;;;5.13;;
24635;SDS011;12772;49.794;10.024;2022-12-22T19:43:01;16.25;;;4.97;;
24635;SDS011;12772;49.794;10.024;2022-12-22T19:47:04;15.77;;;4.78;;
24635;SDS011;12772;49.794;10.024;2022-12-22T19:51:21;25.10;;;5.38;;
24635;SDS011;12772;49.794;10.024;2022-12-22T19:55:24;14.23;;;5.47;;
24635;SDS011;12772;49.794;10.024;2022-12-22T19:59:31;19.80;;;5.45;;
24635;SDS011;12772;49.794;10.024;2022-12-22T20:03:39;19.67;;;5.38;;
24635;SDS011;12772;49.794;10.024;2022-12-22T20:07:41;18.25;;;4.75;;
24635;SDS011;12772;49.794;10.024;2022-12-22T20:11:43;14.65;;;5.38;;
24635;SDS011;12772;49.794;10.024;2022-12-22T20:15:46;16.88;;;5.20;;
24635;SDS011;12772;49.794;10.024;2022-12-22T20:19:48;14.80;;;4.53;;
24635;SDS011;12772;49.794;10.024;2022-12-22T20:23:51;12.43;;;5.00;;
24635;SDS011;12772;49.794;10.024;2022-12-22T20:27:54;17.90;;;4.63;;
24635;SDS011;12772;49.794;10.024;2022-12-22T20:31:56;18.08;;;4.80;;
24635;SDS011;12772;49.794;10.024;2022-12-22T20:35:58;14.30;;;5.53;;
24635;SDS011;12772;49.794;10.024;2022-12-22T20:40:02;15.55;;;4.75;;
24635;SDS011;12772;49.794;10.024;2022-12-22T20:44:04;13.98;;;4.60;;
24635;SDS011;12772;49.794;10.024;2022-12-22T20:48:09;17.48;;;4.93;;
24635;SDS011;12772;49.794;10.024;2022-12-22T20:52:25;16.85;;;4.72;;
24635;SDS011;12772;49.794;10.024;2022-12-22T20:56:29;14.73;;;4.15;;
24635;SDS011;12772;49.794;10.024;2022-12-22T21:00:32;18.83;;;5.03;;
24635;SDS011;12772;49.794;10.024;2022-12-22T21:04:34;14.40;;;4.10;;
24635;SDS011;12772;49.794;10.024;2022-12-22T21:08:36;9.32;;;3.78;;
24635;SDS011;12772;49.794;10.024;2022-12-22T21:12:39;17.77;;;4.68;;
24635;SDS011;12772;49.794;10.024;2022-12-22T21:16:41;15.48;;;5.13;;
24635;SDS011;12772;49.794;10.024;2022-12-22T21:20:44;13.70;;;4.20;;
24635;SDS011;12772;49.794;10.024;2022-12-22T21:24:46;17.58;;;5.50;;
24635;SDS011;12772;49.794;10.024;2022-12-22T21:28:49;14.25;;;4.78;;
24635;SDS011;12772;49.794;10.024;2022-12-22T21:32:52;20.05;;;4.97;;
24635;SDS011;12772;49.794;10.024;2022-12-22T21:36:57;17.55;;;4.78;;
24635;SDS011;12772;49.794;10.024;2022-12-22T21:41:01;13.57;;;4.38;;
24635;SDS011;12772;49.794;10.024;2022-12-22T21:45:04;12.40;;;3.83;;
24635;SDS011;12772;49.794;10.024;2022-12-22T21:49:07;13.77;;;4.25;;
24635;SDS011;12772;49.794;10.024;2022-12-22T21:53:21;16.88;;;4.70;;
24635;SDS011;12772;49.794;10.024;2022-12-22T21:57:30;13.15;;;4.07;;
24635;SDS011;12772;49.794;10.024;2022-12-22T22:01:55;15.05;;;3.83;;
24635;SDS011;12772;49.794;10.024;2022-12-22T22:05:57;12.52;;;4.20;;
24635;SDS011;12772;49.794;10.024;2022-12-22T22:09:59;14.55;;;3.70;;
24635;SDS011;12772;49.794;10.024;2022-12-22T22:14:01;14.88;;;4.10;;
24635;SDS011;12772;49.794;10.024;2022-12-22T22:18:03;12.77;;;3.83;;
24635;SDS011;12772;49.794;10.024;2022-12-22T22:22:06;11.25;;;3.70;;
24635;SDS011;12772;49.794;10.024;2022-12-22T22:26:08;11.43;;;3.38;;
24635;SDS011;12772;49.794;10.024;2022-12-22T22:30:21;10.40;;;3.58;;
24635;SDS011;12772;49.794;10.024;2022-12-22T22:34:24;9.93;;;3.33;;
24635;SDS011;12772;49.794;10.024;2022-12-22T22:38:26;10.80;;;3.47;;
24635;SDS011;12772;49.794;10.024;2022-12-22T22:42:28;6.72;;;3.17;;
24635;SDS011;12772;49.794;10.024;2022-12-22T22:46:30;13.55;;;3.72;;
24635;SDS011;12772;49.794;10.024;2022-12-22T22:50:32;11.63;;;4.05;;
24635;SDS011;12772;49.794;10.024;2022-12-22T22:54:35;15.05;;;4.05;;
24635;SDS011;12772;49.794;10.024;2022-12-22T22:58:37;12.65;;;3.47;;
24635;SDS011;12772;49.794;10.024;2022-12-22T23:02:39;7.65;;;2.53;;
24635;SDS011;12772;49.794;10.024;2022-12-22T23:06:41;7.03;;;2.55;;
24635;SDS011;12772;49.794;10.024;2022-12-22T23:10:46;7.68;;;3.15;;
24635;SDS011;12772;49.794;10.024;2022-12-22T23:14:49;9.02;;;2.60;;
24635;SDS011;12772;49.794;10.024;2022-12-22T23:18:52;9.52;;;3.05;;
24635;SDS011;12772;49.794;10.024;2022-12-22T23:22:54;8.65;;;2.67;;
24635;SDS011;12772;49.794;10.024;2022-12-22T23:26:57;6.22;;;2.75;;
24635;SDS011;12772;49.794;10.024;2022-12-22T23:30:59;8.60;;;2.50;;
24635;SDS011;12772;49.794;10.024;2022-12-22T23:35:01;6.55;;;2.65;;
24635;SDS011;12772;49.794;10.024;2022-12-22T23:39:03;8.35;;;2.63;;
24635;SDS011;12772;49.794;10.024;2022-12-22T23:43:06;6.30;;;2.45;;
24635;SDS011;12772;49.794;10.024;2022-12-22T23:47:10;7.32;;;2.78;;
24635;SDS011;12772;49.794;10.024;2022-12-22T23:51:12;8.30;;;2.78;;
24635;SDS011;12772;49.794;10.024;2022-12-22T23:55:14;8.50;;;2.97;;
24635;SDS011;12772;49.794;10.024;2022-12-22T23:59:16;6.18;;;2.22;;
